sensor_id;sensor_type;location;lat;lon;timestamp;pressure;altitude;pressure_sealevel;temperature;humidity
38400;BME280;24180;42.676;23.320;2023-07-20T00:00:52;94729.69;;;22.96;100.00
38400;BME280;24180;42.676;23.320;2023-07-20T00:03:19;94796.66;;;23.24;100.00
38400;BME280;24180;42.676;23.320;2023-07-20T00:05:49;94764.81;;;23.04;100.00
38400;BME280;24180;42.676;23.320;2023-07-20T00:08:15;94779.09;;;23.23;100.00
38400;BME280;24180;42.676;23.320;2023-07-20T00:10:41;94792.16;;;23.31;100.00
38400;BME280;24180;42.676;23.320;2023-07-20T00:13:07;94793.78;;;23.32;100.00
38400;BME280;24180;42.676;23.320;2023-07-20T00:15:32;94775.84;;;23.21;100.00
38400;BME280;24180;42.676;23.320;2023-07-20T00:17:58;94798.47;;;23.30;100.00
38400;BME280;24180;42.676;23.320;2023-07-20T00:20:24;94787.69;;;23.25;100.00
38400;BME280;24180;42.676;23.320;2023-07-20T00:22:50;94795.84;;;23.24;100.00
38400;BME280;24180;42.676;23.320;2023-07-20T00:25:16;94764.78;;;23.11;100.00
38400;BME280;24180;42.676;23.320;2023-07-20T00:27:42;94832.25;;;23.36;100.00
38400;BME280;24180;42.676;23.320;2023-07-20T00:30:07;94803.78;;;23.30;100.00
38400;BME280;24180;42.676;23.320;2023-07-20T00:32:33;94806.06;;;23.27;100.00
38400;BME280;24180;42.676;23.320;2023-07-20T00:34:59;94765.41;;;23.20;100.00
38400;BME280;24180;42.676;23.320;2023-07-20T00:37:24;94775.03;;;23.21;100.00
38400;BME280;24180;42.676;23.320;2023-07-20T00:39:50;94777.06;;;23.25;100.00
38400;BME280;24180;42.676;23.320;2023-07-20T00:42:16;94790.56;;;23.37;100.00
38400;BME280;24180;42.676;23.320;2023-07-20T00:44:41;94811.38;;;23.40;100.00
38400;BME280;24180;42.676;23.320;2023-07-20T00:47:07;94784.00;;;23.20;100.00
38400;BME280;24180;42.676;23.320;2023-07-20T00:49:32;94773.75;;;23.10;100.00
38400;BME280;24180;42.676;23.320;2023-07-20T00:52:00;94745.19;;;22.85;100.00
38400;BME280;24180;42.676;23.320;2023-07-20T00:54:27;94752.31;;;22.92;100.00
38400;BME280;24180;42.676;23.320;2023-07-20T00:56:54;94768.25;;;22.98;100.00
38400;BME280;24180;42.676;23.320;2023-07-20T00:59:19;94759.06;;;22.87;100.00
38400;BME280;24180;42.676;23.320;2023-07-20T01:01:46;94770.09;;;22.78;100.00
38400;BME280;24180;42.676;23.320;2023-07-20T01:04:11;94708.44;;;22.34;100.00
38400;BME280;24180;42.676;23.320;2023-07-20T01:06:58;94766.59;;;22.51;100.00
38400;BME280;24180;42.676;23.320;2023-07-20T01:10:11;94783.50;;;22.43;100.00
38400;BME280;24180;42.676;23.320;2023-07-20T01:12:42;94751.63;;;22.23;100.00
38400;BME280;24180;42.676;23.320;2023-07-20T01:15:08;94772.88;;;22.30;100.00
38400;BME280;24180;42.676;23.320;2023-07-20T01:17:35;94743.22;;;22.13;100.00
38400;BME280;24180;42.676;23.320;2023-07-20T01:20:00;94729.34;;;22.04;100.00
38400;BME280;24180;42.676;23.320;2023-07-20T01:25:32;94766.66;;;22.09;100.00
38400;BME280;24180;42.676;23.320;2023-07-20T01:33:44;94727.00;;;21.75;100.00
38400;BME280;24180;42.676;23.320;2023-07-20T01:36:11;94741.28;;;21.74;100.00
38400;BME280;24180;42.676;23.320;2023-07-20T01:38:37;94757.59;;;21.77;100.00
38400;BME280;24180;42.676;23.320;2023-07-20T01:41:03;94732.44;;;21.60;100.00
38400;BME280;24180;42.676;23.320;2023-07-20T01:43:28;94755.72;;;21.71;100.00
38400;BME280;24180;42.676;23.320;2023-07-20T01:45:54;94730.59;;;21.71;100.00
38400;BME280;24180;42.676;23.320;2023-07-20T01:48:19;94738.78;;;21.59;100.00
38400;BME280;24180;42.676;23.320;2023-07-20T01:50:45;94744.47;;;21.56;100.00
38400;BME280;24180;42.676;23.320;2023-07-20T01:53:11;94737.72;;;21.56;100.00
38400;BME280;24180;42.676;23.320;2023-07-20T01:55:36;94736.06;;;21.53;100.00
38400;BME280;24180;42.676;23.320;2023-07-20T01:58:02;94732.97;;;21.35;100.00
38400;BME280;24180;42.676;23.320;2023-07-20T02:00:28;94750.72;;;21.35;100.00
38400;BME280;24180;42.676;23.320;2023-07-20T02:02:54;94723.53;;;21.42;100.00
38400;BME280;24180;42.676;23.320;2023-07-20T02:05:19;94708.84;;;21.26;100.00
38400;BME280;24180;42.676;23.320;2023-07-20T02:07:45;94714.94;;;21.24;100.00
38400;BME280;24180;42.676;23.320;2023-07-20T02:10:10;94729.88;;;21.24;100.00
38400;BME280;24180;42.676;23.320;2023-07-20T02:12:35;94730.91;;;21.31;100.00
38400;BME280;24180;42.676;23.320;2023-07-20T02:15:02;94729.28;;;21.31;100.00
38400;BME280;24180;42.676;23.320;2023-07-20T02:17:28;94705.16;;;21.30;100.00
38400;BME280;24180;42.676;23.320;2023-07-20T02:19:53;94728.69;;;21.18;100.00
38400;BME280;24180;42.676;23.320;2023-07-20T02:22:20;94719.81;;;21.14;100.00
38400;BME280;24180;42.676;23.320;2023-07-20T02:24:45;94745.13;;;21.23;100.00
38400;BME280;24180;42.676;23.320;2023-07-20T02:27:11;94711.97;;;21.23;100.00
38400;BME280;24180;42.676;23.320;2023-07-20T02:29:36;94716.06;;;20.99;100.00
38400;BME280;24180;42.676;23.320;2023-07-20T02:32:02;94711.53;;;21.02;100.00
38400;BME280;24180;42.676;23.320;2023-07-20T02:34:28;94728.75;;;21.13;100.00
38400;BME280;24180;42.676;23.320;2023-07-20T02:36:54;94720.38;;;21.03;100.00
38400;BME280;24180;42.676;23.320;2023-07-20T02:39:21;94741.84;;;20.87;100.00
38400;BME280;24180;42.676;23.320;2023-07-20T02:41:47;94706.66;;;20.99;100.00
38400;BME280;24180;42.676;23.320;2023-07-20T02:44:13;94716.25;;;21.00;100.00
38400;BME280;24180;42.676;23.320;2023-07-20T02:46:39;94692.25;;;21.02;100.00
38400;BME280;24180;42.676;23.320;2023-07-20T02:49:04;94681.19;;;20.92;100.00
38400;BME280;24180;42.676;23.320;2023-07-20T02:51:30;94694.75;;;21.10;100.00
38400;BME280;24180;42.676;23.320;2023-07-20T02:53:55;94687.53;;;20.97;100.00
38400;BME280;24180;42.676;23.320;2023-07-20T02:56:21;94705.50;;;21.08;100.00
38400;BME280;24180;42.676;23.320;2023-07-20T02:58:48;94688.34;;;20.98;100.00
38400;BME280;24180;42.676;23.320;2023-07-20T03:01:13;94679.41;;;20.99;100.00
38400;BME280;24180;42.676;23.320;2023-07-20T03:03:41;94680.34;;;20.91;100.00
38400;BME280;24180;42.676;23.320;2023-07-20T03:06:11;94690.34;;;20.96;100.00
38400;BME280;24180;42.676;23.320;2023-07-20T03:08:36;94678.06;;;20.81;100.00
38400;BME280;24180;42.676;23.320;2023-07-20T03:11:01;94703.00;;;20.94;100.00
38400;BME280;24180;42.676;23.320;2023-07-20T03:13:27;94707.09;;;20.96;100.00
38400;BME280;24180;42.676;23.320;2023-07-20T03:15:53;94684.38;;;20.80;100.00
38400;BME280;24180;42.676;23.320;2023-07-20T03:18:18;94682.97;;;20.84;100.00
38400;BME280;24180;42.676;23.320;2023-07-20T03:20:44;94640.13;;;20.68;100.00
38400;BME280;24180;42.676;23.320;2023-07-20T03:23:10;94717.97;;;21.15;100.00
38400;BME280;24180;42.676;23.320;2023-07-20T03:25:35;94683.91;;;20.98;100.00
38400;BME280;24180;42.676;23.320;2023-07-20T03:28:02;94717.34;;;21.13;100.00
38400;BME280;24180;42.676;23.320;2023-07-20T03:30:28;94721.81;;;21.12;100.00
38400;BME280;24180;42.676;23.320;2023-07-20T03:32:53;94717.78;;;21.16;100.00
38400;BME280;24180;42.676;23.320;2023-07-20T03:35:19;94710.88;;;21.22;100.00
38400;BME280;24180;42.676;23.320;2023-07-20T03:37:44;94685.56;;;21.06;100.00
38400;BME280;24180;42.676;23.320;2023-07-20T03:40:10;94695.31;;;21.05;100.00
38400;BME280;24180;42.676;23.320;2023-07-20T03:42:35;94766.91;;;20.91;100.00
38400;BME280;24180;42.676;23.320;2023-07-20T03:45:01;94715.09;;;21.03;100.00
38400;BME280;24180;42.676;23.320;2023-07-20T03:47:28;94702.59;;;20.97;100.00
38400;BME280;24180;42.676;23.320;2023-07-20T03:49:53;94724.69;;;21.17;100.00
38400;BME280;24180;42.676;23.320;2023-07-20T03:52:19;94712.03;;;21.06;100.00
38400;BME280;24180;42.676;23.320;2023-07-20T03:54:44;94721.63;;;21.14;100.00
38400;BME280;24180;42.676;23.320;2023-07-20T03:57:09;94707.56;;;21.14;100.00
38400;BME280;24180;42.676;23.320;2023-07-20T03:59:37;94728.00;;;21.19;100.00
38400;BME280;24180;42.676;23.320;2023-07-20T04:02:02;94734.53;;;21.23;100.00
38400;BME280;24180;42.676;23.320;2023-07-20T04:04:31;94708.41;;;21.20;100.00
38400;BME280;24180;42.676;23.320;2023-07-20T04:06:56;94719.50;;;21.37;100.00
38400;BME280;24180;42.676;23.320;2023-07-20T04:09:22;94704.22;;;21.37;100.00
38400;BME280;24180;42.676;23.320;2023-07-20T04:11:47;94722.38;;;21.35;100.00
38400;BME280;24180;42.676;23.320;2023-07-20T04:14:13;94680.66;;;21.09;100.00
38400;BME280;24180;42.676;23.320;2023-07-20T04:16:38;94678.69;;;21.09;100.00
38400;BME280;24180;42.676;23.320;2023-07-20T04:19:03;94689.56;;;21.37;100.00
38400;BME280;24180;42.676;23.320;2023-07-20T04:21:29;94708.56;;;21.37;100.00
38400;BME280;24180;42.676;23.320;2023-07-20T04:23:54;94704.66;;;21.53;100.00
38400;BME280;24180;42.676;23.320;2023-07-20T04:26:20;94695.91;;;21.49;100.00
38400;BME280;24180;42.676;23.320;2023-07-20T04:28:45;94706.56;;;21.62;100.00
38400;BME280;24180;42.676;23.320;2023-07-20T04:31:15;94716.41;;;21.63;100.00
38400;BME280;24180;42.676;23.320;2023-07-20T04:33:41;94710.28;;;21.81;100.00
38400;BME280;24180;42.676;23.320;2023-07-20T04:36:07;94692.34;;;21.75;100.00
38400;BME280;24180;42.676;23.320;2023-07-20T04:38:33;94706.06;;;21.70;100.00
38400;BME280;24180;42.676;23.320;2023-07-20T04:40:58;94697.66;;;21.93;100.00
38400;BME280;24180;42.676;23.320;2023-07-20T04:43:23;94701.75;;;21.76;100.00
38400;BME280;24180;42.676;23.320;2023-07-20T04:45:49;94692.38;;;21.85;100.00
38400;BME280;24180;42.676;23.320;2023-07-20T04:48:16;94697.72;;;21.96;100.00
38400;BME280;24180;42.676;23.320;2023-07-20T04:50:43;94705.06;;;22.07;100.00
38400;BME280;24180;42.676;23.320;2023-07-20T04:53:10;60194.00;;;24.35;100.00
38400;BME280;24180;42.676;23.320;2023-07-20T04:55:36;94720.59;;;22.10;100.00
38400;BME280;24180;42.676;23.320;2023-07-20T04:58:03;94731.84;;;22.19;100.00
38400;BME280;24180;42.676;23.320;2023-07-20T05:00:33;94681.44;;;22.19;100.00
38400;BME280;24180;42.676;23.320;2023-07-20T05:02:58;94687.53;;;22.13;100.00
38400;BME280;24180;42.676;23.320;2023-07-20T05:05:24;94720.59;;;22.02;100.00
38400;BME280;24180;42.676;23.320;2023-07-20T05:07:49;94713.69;;;22.23;100.00
38400;BME280;24180;42.676;23.320;2023-07-20T05:10:16;60194.00;;;24.35;100.00
38400;BME280;24180;42.676;23.320;2023-07-20T05:12:41;94691.63;;;22.22;100.00
38400;BME280;24180;42.676;23.320;2023-07-20T05:15:07;94707.59;;;22.35;100.00
38400;BME280;24180;42.676;23.320;2023-07-20T05:17:32;94709.81;;;22.38;100.00
38400;BME280;24180;42.676;23.320;2023-07-20T05:19:58;94716.16;;;22.37;100.00
38400;BME280;24180;42.676;23.320;2023-07-20T05:22:23;94695.13;;;22.29;100.00
38400;BME280;24180;42.676;23.320;2023-07-20T05:24:50;60185.53;;;24.35;100.00
38400;BME280;24180;42.676;23.320;2023-07-20T05:27:15;94717.81;;;22.52;100.00
38400;BME280;24180;42.676;23.320;2023-07-20T05:29:44;94730.69;;;22.68;100.00
38400;BME280;24180;42.676;23.320;2023-07-20T05:32:10;94738.63;;;22.75;100.00
38400;BME280;24180;42.676;23.320;2023-07-20T05:34:35;94713.31;;;22.72;100.00
38400;BME280;24180;42.676;23.320;2023-07-20T05:37:10;94728.22;;;22.86;100.00
38400;BME280;24180;42.676;23.320;2023-07-20T05:39:36;94729.47;;;22.77;100.00
38400;BME280;24180;42.676;23.320;2023-07-20T05:42:01;94727.63;;;22.84;100.00
38400;BME280;24180;42.676;23.320;2023-07-20T05:44:26;94750.31;;;23.00;100.00
38400;BME280;24180;42.676;23.320;2023-07-20T05:46:52;94738.03;;;22.99;100.00
38400;BME280;24180;42.676;23.320;2023-07-20T05:49:17;94765.59;;;23.18;100.00
38400;BME280;24180;42.676;23.320;2023-07-20T05:51:43;94770.50;;;23.28;100.00
38400;BME280;24180;42.676;23.320;2023-07-20T05:54:08;94708.78;;;23.06;100.00
38400;BME280;24180;42.676;23.320;2023-07-20T05:56:33;94760.69;;;23.35;100.00
38400;BME280;24180;42.676;23.320;2023-07-20T05:58:59;94730.44;;;23.36;100.00
38400;BME280;24180;42.676;23.320;2023-07-20T06:01:24;94763.13;;;23.43;100.00
38400;BME280;24180;42.676;23.320;2023-07-20T06:03:52;94728.81;;;23.35;100.00
38400;BME280;24180;42.676;23.320;2023-07-20T06:06:18;94752.69;;;23.55;100.00
38400;BME280;24180;42.676;23.320;2023-07-20T06:08:43;94738.59;;;23.61;100.00
38400;BME280;24180;42.676;23.320;2023-07-20T06:11:09;94770.00;;;23.84;100.00
38400;BME280;24180;42.676;23.320;2023-07-20T06:13:35;94756.47;;;23.92;100.00
38400;BME280;24180;42.676;23.320;2023-07-20T06:16:01;94777.72;;;24.05;100.00
38400;BME280;24180;42.676;23.320;2023-07-20T06:18:26;94753.56;;;24.07;100.00
38400;BME280;24180;42.676;23.320;2023-07-20T06:20:52;94723.66;;;24.11;100.00
38400;BME280;24180;42.676;23.320;2023-07-20T06:23:19;94734.63;;;24.42;100.00
38400;BME280;24180;42.676;23.320;2023-07-20T06:25:44;94747.72;;;24.36;100.00
38400;BME280;24180;42.676;23.320;2023-07-20T06:28:10;94750.53;;;24.53;100.00
38400;BME280;24180;42.676;23.320;2023-07-20T06:30:36;94749.22;;;24.64;100.00
38400;BME280;24180;42.676;23.320;2023-07-20T06:33:01;94735.16;;;24.57;100.00
38400;BME280;24180;42.676;23.320;2023-07-20T06:35:27;94726.72;;;24.67;100.00
38400;BME280;24180;42.676;23.320;2023-07-20T06:37:52;94757.25;;;24.96;100.00
38400;BME280;24180;42.676;23.320;2023-07-20T06:40:17;94721.25;;;24.87;100.00
38400;BME280;24180;42.676;23.320;2023-07-20T06:42:43;94739.50;;;25.15;100.00
38400;BME280;24180;42.676;23.320;2023-07-20T06:45:09;94716.91;;;25.17;100.00
38400;BME280;24180;42.676;23.320;2023-07-20T06:47:34;94728.22;;;25.38;100.00
38400;BME280;24180;42.676;23.320;2023-07-20T06:50:00;94733.94;;;25.41;100.00
38400;BME280;24180;42.676;23.320;2023-07-20T06:52:25;94730.06;;;25.62;100.00
38400;BME280;24180;42.676;23.320;2023-07-20T06:54:51;94754.44;;;25.91;100.00
38400;BME280;24180;42.676;23.320;2023-07-20T06:57:16;94764.16;;;26.03;100.00
38400;BME280;24180;42.676;23.320;2023-07-20T06:59:42;94742.53;;;26.30;100.00
38400;BME280;24180;42.676;23.320;2023-07-20T07:02:07;94765.69;;;26.88;100.00
38400;BME280;24180;42.676;23.320;2023-07-20T07:04:33;94804.56;;;27.36;100.00
38400;BME280;24180;42.676;23.320;2023-07-20T07:06:59;94773.09;;;27.50;100.00
38400;BME280;24180;42.676;23.320;2023-07-20T07:09:25;94790.84;;;27.74;100.00
38400;BME280;24180;42.676;23.320;2023-07-20T07:11:50;94789.91;;;27.27;100.00
38400;BME280;24180;42.676;23.320;2023-07-20T07:14:16;94792.41;;;26.88;100.00
38400;BME280;24180;42.676;23.320;2023-07-20T07:16:42;94783.16;;;26.50;100.00
38400;BME280;24180;42.676;23.320;2023-07-20T07:19:07;94805.94;;;26.16;100.00
38400;BME280;24180;42.676;23.320;2023-07-20T07:21:33;94788.00;;;26.03;100.00
38400;BME280;24180;42.676;23.320;2023-07-20T07:23:59;94829.78;;;26.11;100.00
38400;BME280;24180;42.676;23.320;2023-07-20T07:26:25;60168.84;;;24.51;100.00
38400;BME280;24180;42.676;23.320;2023-07-20T07:28:50;60168.84;;;24.35;100.00
38400;BME280;24180;42.676;23.320;2023-07-20T07:31:16;94827.41;;;26.03;100.00
38400;BME280;24180;42.676;23.320;2023-07-20T07:33:41;94824.16;;;26.01;100.00
38400;BME280;24180;42.676;23.320;2023-07-20T07:36:07;94795.06;;;25.93;100.00
38400;BME280;24180;42.676;23.320;2023-07-20T07:38:32;94801.09;;;26.07;100.00
38400;BME280;24180;42.676;23.320;2023-07-20T07:40:58;94783.03;;;26.02;100.00
38400;BME280;24180;42.676;23.320;2023-07-20T07:43:24;94791.16;;;26.14;100.00
38400;BME280;24180;42.676;23.320;2023-07-20T07:45:49;94808.59;;;26.35;100.00
38400;BME280;24180;42.676;23.320;2023-07-20T07:48:15;94757.44;;;26.19;100.00
38400;BME280;24180;42.676;23.320;2023-07-20T07:50:40;94744.78;;;26.52;100.00
38400;BME280;24180;42.676;23.320;2023-07-20T07:53:07;94766.34;;;26.68;100.00
38400;BME280;24180;42.676;23.320;2023-07-20T07:55:33;94706.13;;;26.54;100.00
38400;BME280;24180;42.676;23.320;2023-07-20T07:57:59;94787.84;;;26.92;100.00
38400;BME280;24180;42.676;23.320;2023-07-20T08:00:25;94772.88;;;26.72;100.00
38400;BME280;24180;42.676;23.320;2023-07-20T08:02:51;94750.44;;;26.92;100.00
38400;BME280;24180;42.676;23.320;2023-07-20T08:05:16;94775.72;;;27.08;100.00
38400;BME280;24180;42.676;23.320;2023-07-20T08:07:42;94788.19;;;27.14;100.00
38400;BME280;24180;42.676;23.320;2023-07-20T08:10:08;94813.50;;;27.11;100.00
38400;BME280;24180;42.676;23.320;2023-07-20T08:12:34;94819.59;;;27.18;100.00
38400;BME280;24180;42.676;23.320;2023-07-20T08:14:59;94812.59;;;27.17;100.00
38400;BME280;24180;42.676;23.320;2023-07-20T08:17:25;94812.88;;;26.98;100.00
38400;BME280;24180;42.676;23.320;2023-07-20T08:19:50;94784.00;;;26.69;100.00
38400;BME280;24180;42.676;23.320;2023-07-20T08:22:16;94818.25;;;26.91;100.00
38400;BME280;24180;42.676;23.320;2023-07-20T08:24:42;94838.78;;;26.60;100.00
38400;BME280;24180;42.676;23.320;2023-07-20T08:27:08;94822.44;;;26.50;100.00
38400;BME280;24180;42.676;23.320;2023-07-20T08:29:34;94816.88;;;26.52;100.00
38400;BME280;24180;42.676;23.320;2023-07-20T08:31:59;94824.88;;;26.52;100.00
38400;BME280;24180;42.676;23.320;2023-07-20T08:34:25;94844.22;;;26.47;100.00
38400;BME280;24180;42.676;23.320;2023-07-20T08:36:50;94850.91;;;26.38;100.00
38400;BME280;24180;42.676;23.320;2023-07-20T08:39:15;94830.13;;;26.21;100.00
38400;BME280;24180;42.676;23.320;2023-07-20T08:41:43;94815.63;;;26.11;100.00
38400;BME280;24180;42.676;23.320;2023-07-20T08:44:09;94832.25;;;26.13;100.00
38400;BME280;24180;42.676;23.320;2023-07-20T08:46:37;94824.06;;;26.08;100.00
38400;BME280;24180;42.676;23.320;2023-07-20T08:49:03;94834.28;;;26.17;100.00
38400;BME280;24180;42.676;23.320;2023-07-20T08:51:30;94840.59;;;26.41;100.00
38400;BME280;24180;42.676;23.320;2023-07-20T08:53:55;94834.13;;;26.31;100.00
38400;BME280;24180;42.676;23.320;2023-07-20T08:56:23;94851.53;;;26.58;100.00
38400;BME280;24180;42.676;23.320;2023-07-20T08:58:53;59899.50;;;24.51;100.00
38400;BME280;24180;42.676;23.320;2023-07-20T09:01:19;60151.91;;;24.35;100.00
38400;BME280;24180;42.676;23.320;2023-07-20T09:03:46;60151.91;;;24.35;100.00
38400;BME280;24180;42.676;23.320;2023-07-20T09:06:11;94829.78;;;26.73;100.00
38400;BME280;24180;42.676;23.320;2023-07-20T09:08:40;94832.91;;;26.70;100.00
38400;BME280;24180;42.676;23.320;2023-07-20T09:11:06;94800.91;;;26.63;100.00
38400;BME280;24180;42.676;23.320;2023-07-20T09:13:35;94774.91;;;26.70;100.00
38400;BME280;24180;42.676;23.320;2023-07-20T09:16:00;60168.84;;;24.51;100.00
38400;BME280;24180;42.676;23.320;2023-07-20T09:18:30;94817.91;;;26.87;100.00
38400;BME280;24180;42.676;23.320;2023-07-20T09:21:06;94800.97;;;26.93;100.00
38400;BME280;24180;42.676;23.320;2023-07-20T09:25:58;94793.13;;;27.29;100.00
38400;BME280;24180;42.676;23.320;2023-07-20T09:28:24;94812.88;;;27.28;100.00
38400;BME280;24180;42.676;23.320;2023-07-20T09:30:49;94821.03;;;27.33;100.00
38400;BME280;24180;42.676;23.320;2023-07-20T09:33:21;60168.84;;;24.51;100.00
38400;BME280;24180;42.676;23.320;2023-07-20T09:35:47;60168.84;;;24.51;100.00
38400;BME280;24180;42.676;23.320;2023-07-20T09:38:14;60168.84;;;24.51;100.00
38400;BME280;24180;42.676;23.320;2023-07-20T09:40:40;60168.84;;;24.51;100.00
38400;BME280;24180;42.676;23.320;2023-07-20T09:43:08;60151.91;;;24.35;100.00
38400;BME280;24180;42.676;23.320;2023-07-20T09:45:43;60168.84;;;24.51;100.00
38400;BME280;24180;42.676;23.320;2023-07-20T09:48:10;60151.91;;;24.35;100.00
38400;BME280;24180;42.676;23.320;2023-07-20T09:50:43;60168.84;;;24.51;100.00
38400;BME280;24180;42.676;23.320;2023-07-20T09:53:11;60151.91;;;24.35;100.00
38400;BME280;24180;42.676;23.320;2023-07-20T09:55:40;60151.91;;;24.35;100.00
38400;BME280;24180;42.676;23.320;2023-07-20T09:58:06;60151.91;;;24.35;100.00
38400;BME280;24180;42.676;23.320;2023-07-20T10:00:36;60067.78;;;24.35;100.00
38400;BME280;24180;42.676;23.320;2023-07-20T10:03:04;60151.91;;;24.27;100.00
38400;BME280;24180;42.676;23.320;2023-07-20T10:05:33;60151.91;;;24.35;100.00
38400;BME280;24180;42.676;23.320;2023-07-20T10:08:01;60151.91;;;24.35;100.00
38400;BME280;24180;42.676;23.320;2023-07-20T10:10:28;60151.91;;;24.35;100.00
38400;BME280;24180;42.676;23.320;2023-07-20T10:12:54;60168.84;;;24.51;100.00
38400;BME280;24180;42.676;23.320;2023-07-20T10:15:42;60151.91;;;24.35;100.00
38400;BME280;24180;42.676;23.320;2023-07-20T10:18:29;60151.91;;;24.35;100.00
38400;BME280;24180;42.676;23.320;2023-07-20T10:20:57;60168.84;;;24.51;100.00
38400;BME280;24180;42.676;23.320;2023-07-20T10:23:24;60151.91;;;24.35;100.00
38400;BME280;24180;42.676;23.320;2023-07-20T10:25:52;60151.91;;;24.35;100.00
38400;BME280;24180;42.676;23.320;2023-07-20T10:28:17;60151.91;;;24.35;100.00
38400;BME280;24180;42.676;23.320;2023-07-20T10:30:43;60168.84;;;24.35;100.00
38400;BME280;24180;42.676;23.320;2023-07-20T10:33:10;60151.91;;;24.35;100.00
38400;BME280;24180;42.676;23.320;2023-07-20T10:35:53;60151.91;;;24.35;100.00
38400;BME280;24180;42.676;23.320;2023-07-20T10:38:18;60151.91;;;24.35;100.00
38400;BME280;24180;42.676;23.320;2023-07-20T10:40:54;60151.91;;;24.35;100.00
38400;BME280;24180;42.676;23.320;2023-07-20T10:43:19;60151.91;;;24.35;100.00
38400;BME280;24180;42.676;23.320;2023-07-20T10:45:50;60168.84;;;24.51;100.00
38400;BME280;24180;42.676;23.320;2023-07-20T10:48:18;60151.91;;;24.51;100.00
38400;BME280;24180;42.676;23.320;2023-07-20T10:50:45;60067.78;;;24.35;100.00
38400;BME280;24180;42.676;23.320;2023-07-20T10:53:18;60151.91;;;24.35;100.00
38400;BME280;24180;42.676;23.320;2023-07-20T10:55:44;60067.78;;;24.35;100.00
38400;BME280;24180;42.676;23.320;2023-07-20T10:58:13;60151.91;;;24.35;100.00
38400;BME280;24180;42.676;23.320;2023-07-20T11:01:00;60151.91;;;24.35;100.00
38400;BME280;24180;42.676;23.320;2023-07-20T11:03:39;60151.91;;;24.35;100.00
38400;BME280;24180;42.676;23.320;2023-07-20T11:08:55;60168.84;;;24.51;100.00
38400;BME280;24180;42.676;23.320;2023-07-20T11:11:25;60168.84;;;24.35;100.00
38400;BME280;24180;42.676;23.320;2023-07-20T11:14:01;60084.69;;;24.35;100.00
38400;BME280;24180;42.676;23.320;2023-07-20T11:16:41;60168.84;;;24.35;100.00
38400;BME280;24180;42.676;23.320;2023-07-20T11:21:43;60084.69;;;24.51;100.00
38400;BME280;24180;42.676;23.320;2023-07-20T11:24:09;60084.69;;;24.51;100.00
38400;BME280;24180;42.676;23.320;2023-07-20T11:27:01;60084.69;;;24.51;100.00
38400;BME280;24180;42.676;23.320;2023-07-20T11:29:27;60084.69;;;24.51;100.00
38400;BME280;24180;42.676;23.320;2023-07-20T11:31:52;60084.69;;;24.51;100.00
38400;BME280;24180;42.676;23.320;2023-07-20T11:34:20;60084.69;;;24.51;100.00
38400;BME280;24180;42.676;23.320;2023-07-20T11:36:50;60084.69;;;24.51;100.00
38400;BME280;24180;42.676;23.320;2023-07-20T11:39:20;60084.69;;;24.35;100.00
38400;BME280;24180;42.676;23.320;2023-07-20T11:41:48;60084.69;;;24.51;100.00
38400;BME280;24180;42.676;23.320;2023-07-20T11:44:18;60084.69;;;24.51;100.00
38400;BME280;24180;42.676;23.320;2023-07-20T11:46:44;60084.69;;;24.51;100.00
38400;BME280;24180;42.676;23.320;2023-07-20T11:49:11;59410.38;;;24.84;100.00
38400;BME280;24180;42.676;23.320;2023-07-20T11:51:38;60118.56;;;24.84;100.00
38400;BME280;24180;42.676;23.320;2023-07-20T11:54:06;60084.69;;;24.51;100.00
38400;BME280;24180;42.676;23.320;2023-07-20T11:56:32;60084.69;;;24.51;100.00
38400;BME280;24180;42.676;23.320;2023-07-20T11:58:58;60084.69;;;24.51;100.00
38400;BME280;24180;42.676;23.320;2023-07-20T12:01:26;60084.69;;;24.51;100.00
38400;BME280;24180;42.676;23.320;2023-07-20T12:03:57;60084.69;;;24.51;100.00
38400;BME280;24180;42.676;23.320;2023-07-20T12:06:24;60084.69;;;24.35;100.00
38400;BME280;24180;42.676;23.320;2023-07-20T12:08:50;60084.69;;;24.51;100.00
38400;BME280;24180;42.676;23.320;2023-07-20T12:11:39;60084.69;;;24.51;100.00
38400;BME280;24180;42.676;23.320;2023-07-20T12:14:08;60084.69;;;24.51;100.00
38400;BME280;24180;42.676;23.320;2023-07-20T12:16:35;60084.69;;;24.51;100.00
38400;BME280;24180;42.676;23.320;2023-07-20T12:19:09;60084.69;;;24.51;100.00
38400;BME280;24180;42.676;23.320;2023-07-20T12:21:36;59243.19;;;24.51;100.00
38400;BME280;24180;42.676;23.320;2023-07-20T12:24:02;60084.69;;;24.35;100.00
38400;BME280;24180;42.676;23.320;2023-07-20T12:26:29;60084.69;;;24.51;100.00
38400;BME280;24180;42.676;23.320;2023-07-20T12:28:55;60084.69;;;24.51;100.00
38400;BME280;24180;42.676;23.320;2023-07-20T12:31:20;60084.69;;;24.35;100.00
38400;BME280;24180;42.676;23.320;2023-07-20T12:33:47;60084.69;;;24.51;100.00
38400;BME280;24180;42.676;23.320;2023-07-20T12:36:13;60084.69;;;24.35;100.00
38400;BME280;24180;42.676;23.320;2023-07-20T12:38:38;60084.69;;;24.35;100.00
38400;BME280;24180;42.676;23.320;2023-07-20T12:41:04;60084.69;;;24.51;100.00
38400;BME280;24180;42.676;23.320;2023-07-20T12:43:29;60084.69;;;24.51;100.00
38400;BME280;24180;42.676;23.320;2023-07-20T12:45:55;60084.69;;;24.35;100.00
38400;BME280;24180;42.676;23.320;2023-07-20T12:48:21;60084.69;;;24.51;100.00
38400;BME280;24180;42.676;23.320;2023-07-20T12:50:47;60084.69;;;24.51;100.00
38400;BME280;24180;42.676;23.320;2023-07-20T12:53:12;60168.84;;;24.35;100.00
38400;BME280;24180;42.676;23.320;2023-07-20T12:55:38;60084.69;;;24.51;100.00